Weather observations for the past three days for
Tonopah, Tonopah Airport
Metric (Imperial)
Date Time (pdt) Wind (kph) Vis. (km) Weather Sky Cond. Temperature (ºC) Relative Humidity Wind Chill (°C) Heat Index (°C) Pressure Precipitation (cm)
Air Dwpt 6 hour altimeter (cm) sea level (mb) 1 hr 3 hr 6 hr
Max. Min.
02 15:56 S 28 G 44 16.09 Fair CLR 21.7 -8.3 13% 76.23 1012.0
02 14:56 S 15 G 35 16.09 Fair CLR 22.2 -7.8 13% 76.3 1012.6
02 13:56 S 13 G 39 16.09 Fair CLR 21.1 -8.3 13% 76.38 1013.7
02 12:56 S 22 G 41 16.09 Fair CLR 21.7 -7.2 14% 76.43 1014.2
02 11:56 SW 26 G 37 16.09 Fair CLR 20.6 -8.3 14% 76.48 1013.9
02 10:56 SE 22 G 33 16.09 Fair CLR 18.3 -8.9 19.4 4.4 15% 76.53 1014.5
02 09:56 SE 24 16.09 Fair CLR 16.7 -7.8 18% 76.58 1014.9
02 08:56 SE 6 16.09 Fair CLR 13.3 -6.7 24% 76.58 1015.7
02 07:56 Calm 16.09 Fair CLR 10.6 -5 33% 76.58 1015.9
02 06:56 N 9 16.09 Fair CLR 6.1 -3.3 51% 4 76.56 1016.5
02 05:56 N 13 16.09 Fair CLR 5 -3.9 53% 2 76.53 1016.6
02 04:56 NW 11 16.09 Fair CLR 5 -3.9 18.9 4.4 53% 3 76.53 1016.8
02 03:56 N 11 16.09 Fair CLR 4.4 -3.3 58% 2 76.53 1016.8
02 02:56 N 15 16.09 Fair CLR 6.7 -3.9 47% 4 76.5 1016.3
02 01:56 N 17 16.09 Fair CLR 6.7 -3.3 49% 4 76.5 1016.6
02 00:56 Calm 16.09 Fair CLR 7.2 -2.2 52% 76.53 1016.8
01 19:56 SE 11 16.09 Fair CLR 15.6 -4.4 25% 76.38 1014.1
01 18:56 SE 13 16.09 Fair CLR 18.9 -7.2 16% 76.35 1013.5
01 17:56 SE 13 16.09 Fair CLR 20 -7.2 15% 76.35 1013.7
01 16:56 Vrbl 9 16.09 Fair CLR 20 -7.2 20.6 16.1 15% 76.38 1013.7
01 15:56 Vrbl 7 16.09 Fair CLR 19.4 -7.8 15% 76.38 1014.1
01 14:56 S 17 G 35 16.09 Fair CLR 20 -7.2 15% 76.45 1014.6
01 13:56 Calm 16.09 Fair CLR 18.9 -8.9 14% 76.45 1015.0
01 12:56 Calm 16.09 Fair CLR 17.8 -9.4 15% 76.48 1015.4
01 11:56 Vrbl 11 G 30 16.09 Fair CLR 17.8 -10 14% 76.56 1016.1
01 10:56 NE 9 16.09 Fair CLR 16.7 -8.3 17.2 6.7 17% 76.56 1016.2
01 09:56 NE 20 G 30 16.09 Fair CLR 16.7 -8.3 17% 76.56 1015.9
01 08:56 N 13 16.09 Fair CLR 14.4 -4.4 27% 76.56 1015.9
01 07:56 N 24 16.09 Fair CLR 11.1 -4.4 34% 76.53 1015.9
01 06:56 N 26 16.09 Fair CLR 8.3 -5 39% 5 76.48 1015.7
01 05:56 N 28 16.09 Fair CLR 6.7 -4.4 45% 3 76.43 1014.9
01 04:56 N 24 16.09 Fair CLR 7.8 -4.4 12.2 7.2 42% 5 76.4 1014.3
01 03:56 N 24 16.09 Fair CLR 7.2 -3.9 46% 4 76.4 1014.7
01 02:56 N 22 16.09 Fair CLR 8.3 -3.9 42% 5 76.38 1013.7
01 01:56 N 19 16.09 Fair CLR 8.9 -3.3 42% 6 76.38 1013.8
01 00:56 N 20 16.09 Fair CLR 9.4 -3.3 41% 7 76.38 1013.7
30 23:56 N 20 16.09 Partly Cloudy SCT100 10 -2.2 43% 8 76.35 1013.8
30 22:56 N 19 16.09 Fair CLR 12.2 -3.3 20.6 12.2 34% 76.33 1012.9
30 21:56 N 22 16.09 Mostly Cloudy BKN100 14.4 -4.4 27% 76.28 1012.1
30 20:56 N 17 16.09 Overcast OVC100 16.1 -4.4 24% 76.23 1011.3
30 19:56 NE 7 16.09 Overcast OVC110 17.2 -2.8 26% 76.15 1010.7
30 18:56 W 13 16.09 A Few Clouds FEW110 17.8 -6.1 19% 76.15 1010.8
30 17:56 NW 19 G 31 16.09 Mostly Cloudy BKN110 19.4 -7.2 16% 76.15 1010.6
30 16:56 Calm 16.09 Mostly Cloudy BKN110 20 -7.2 20 15.6 15% 76.15 1011.0
30 15:56 Calm 16.09 Partly Cloudy SCT100 18.3 -7.2 17% 76.2 1011.8
30 14:56 Calm 16.09 A Few Clouds FEW100 18.9 -6.1 18% 76.25 1012.2
30 13:56 Calm 16.09 Mostly Cloudy BKN095 18.3 -6.7 18% 76.3 1012.7
30 12:56 Vrbl 9 16.09 A Few Clouds FEW095 18.3 -5 20% 76.33 1013.0
30 11:56 Vrbl 7 16.09 Mostly Cloudy BKN090 16.7 -5 22% 76.38 1014.5
30 10:56 Calm 16.09 Mostly Cloudy BKN090 16.1 -6.1 16.7 6.7 21% 76.4 1014.9
30 09:56 Vrbl 6 16.09 Fair CLR 15 -4.4 26% 76.43 1015.1
30 08:56 N 17 16.09 A Few Clouds FEW095 13.9 -3.3 30% 76.43 1015.4
30 07:56 N 17 16.09 Overcast OVC095 11.1 -2.2 40% 76.45 1015.8
30 06:56 N 26 16.09 Overcast OVC095 8.3 -2.8 46% 5 76.45 1015.2
30 05:56 N 22 16.09 Overcast OVC090 7.8 -1.7 51% 5 76.4 1014.9
30 04:56 N 20 16.09 Fair CLR 6.7 -1.1 10 6.7 58% 3 76.4 1015.1
30 03:56 N 20 16.09 Fair CLR 7.2 -1.1 56% 4 76.4 1014.9
30 02:56 N 20 16.09 Overcast OVC100 8.3 -1.1 52% 5 76.4 1014.7
30 01:56 N 20 16.09 Overcast OVC100 8.9 -0.6 52% 6 76.43 1015.1
30 00:56 N 13 16.09 Mostly Cloudy BKN110 10 0 50% 8 76.45 1015.4
29 23:56 N 9 16.09 Partly Cloudy SCT100 8.3 1.1 61% 7 76.43 1015.7
29 22:56 NW 11 16.09 Fair CLR 9.4 0.6 17.2 8.9 55% 8 76.4 1015.2
29 21:56 NE 11 16.09 Fair CLR 10.6 0.6 50% 76.43 1015.3
29 20:56 Calm 16.09 Fair CLR 10.6 1.7 54% 76.38 1015.1
29 19:56 SW 11 16.09 A Few Clouds FEW100 12.2 0.6 45% 76.33 1014.7
29 18:56 W 9 16.09 Partly Cloudy SCT095 16.7 -4.4 23% 76.3 1014.4
29 17:56 SW 7 16.09 Fair CLR 16.7 -6.1 21% 76.33 1014.7
29 16:56 Vrbl 9 16.09 A Few Clouds FEW090 16.7 -6.7 17.8 13.3 20% 76.33 1014.8
Date Time (pdt) Wind (kph) Vis. (km) Weather Sky Cond. Air Dwpt Max. Min. Relative Humidity Wind Chill (°C) Heat Index (°C) altimeter (cm) sea level (mb) 1 hr 3 hr 6 hr
6 hour
Temperature (ºC) Pressure Precipitation (cm)